Romblon, Philippines
Current Conditions -  °F | °C
As of 2:00 PM on Wednesday 26 Nov 2014 (Local Time) from RPLL Reporting Station
Rain Showers Rain Showers  
Wind Chill: 84°   Ceiling: 10000
Heat Index: 98°   Visibility: 6mi
Dew Point: 81°   Wind: 5mph
Humidity: 89%   Direction: NA
Pressure: 29.74"   Gusts: NA
Location:  12.58°N, 122.27°E
Report Text: RPLL 260600Z VRB04KT 9999 -SHRA SCT023 BKN100 29/27 Q1007 TEMPO SCT025 SCT100 RMK A2974
Loading
Personal Weather Stations






























Interactive Weather Map New forecast layout! Learn more

10-Day Weather Forecast

Advertisements
Track Severe Weather on mobile